Delaware, AR (72835)

7:28 AM CDT on October 02, 2014 (GMT -0500)
Skyline Weather Station | Change Station
CLOSE
Current Station
Personal Weather Station
Location: Russellville, AR
Elevation: 710 ft
Nearby Weather Stations

Elev 710 ft 35.27 °N, 93.17 °W | Updated 0 second ago

Overcast
Overcast
74.1 °F
Feels Like 72 °F
N
0.0
Wind Variable Wind from ESE
Gusts 5.0 mph

Today
High -- | Low -- °F
--% Chance of Precip.
Yesterday
High -- | Low -- °F
Precip. -- in
7:09 AM 6:56 PM
First Quarter, 58% visible
Pressure 29.84 in
Visibility 10.0 miles
Clouds Mostly Cloudy 2100 ft
Mostly Cloudy 2700 ft
Overcast 4000 ft
Heat Index 72 °F
Dew Point 71 °F
Humidity 90%
Rainfall 0.00 in
Snow Depth Not available.
UV 0 out of 12
Pollen 6.90 out of 12
Air Quality Not available.
Flu Activity Not available.
METAR KRUE 021153Z AUTO 00000KT 10SM BKN021 BKN027 OVC040 24/22 A2986 RMK AO2 SLP103 T02440217 10250 20228 53013

More Conditions Fewer Conditions

Pressure 29.84 in
Visibility 10.0 miles
Clouds Mostly Cloudy 2100 ft
Mostly Cloudy 2700 ft
Overcast 4000 ft
Heat Index 72 °F
Dew Point 71 °F
Humidity 90%
Rainfall 0.00 in
Snow Depth Not available.
UV 0 out of 12
Pollen 6.90 out of 12
Air Quality Not available.
Flu Activity Not available.
METAR KRUE 021153Z AUTO 00000KT 10SM BKN021 BKN027 OVC040 24/22 A2986 RMK AO2 SLP103 T02440217 10250 20228 53013

More Conditions Fewer Conditions

10-Day Weather Forecast

Almanac

Astronomy

Oct. 02, 2014 Rise Set
Actual Time 7:09 AM CDT 6:56 PM CDT
Civil Twilight 6:44 AM CDT 7:21 PM CDT
Nautical Twilight 6:14 AM CDT 7:50 PM CDT
Astronomical Twilight 5:45 AM CDT 8:20 PM CDT
Moon 2:51 PM CDT 12:39 AM CDT
Length of Visible Light 12h 37m
Length of Day
11h 46m
Tomorrow will be 2m 10s shorter.
First Quarter, 58% of the Moon is Illuminated
Today
First Quarter
Oct 8
Full
Oct 15
Last Quarter
Oct 23
New
Oct 30
First Quarter

Today's Extremes

State Highs State Lows

Community

WunderPhotos

Upload Photos

1,758,223 photos uploaded!

WunderBlogs® & News

Nearby

Snow Depth

Station Depth Elevation
No new snow has been reported.

Earthquake Activity

City Distance Mag. Time & Date
No recent earthquake activity has been reported nearby.
Minimum magnitude displayed is 2.5.

Coastal Water Temperatures

Place Temperature
No Stations Reporting

Nearby Weather Stations